createdAt,value
2019-05-17T00:00:27.273Z,11.35
2019-05-17T00:01:27.092Z,11.42
2019-05-17T00:02:26.523Z,11.35
2019-05-17T00:03:26.931Z,11.44
2019-05-17T00:04:26.856Z,11.36
2019-05-17T00:05:26.515Z,11.46
2019-05-17T00:06:24.806Z,11.35
2019-05-17T00:07:27.135Z,11.39
2019-05-17T00:08:33.887Z,11.43
2019-05-17T00:09:26.747Z,11.44
2019-05-17T00:10:26.451Z,11.42
2019-05-17T00:11:24.715Z,11.40
2019-05-17T00:12:26.972Z,11.54
2019-05-17T00:13:26.697Z,11.49
2019-05-17T00:14:26.990Z,11.39
2019-05-17T00:15:27.189Z,11.36
2019-05-17T00:16:26.690Z,11.49
2019-05-17T00:17:26.781Z,11.49
2019-05-17T00:18:26.498Z,11.40
2019-05-17T00:19:26.316Z,11.36
2019-05-17T00:20:26.640Z,11.37
2019-05-17T00:21:24.530Z,11.46
2019-05-17T00:22:26.871Z,11.46
2019-05-17T00:23:26.746Z,11.36
2019-05-17T00:24:26.516Z,11.46
2019-05-17T00:25:24.471Z,11.37
2019-05-17T00:26:26.799Z,11.43
2019-05-17T00:27:26.367Z,11.47
2019-05-17T00:28:26.745Z,11.47
2019-05-17T00:29:26.339Z,11.43
2019-05-17T00:30:26.390Z,11.40
2019-05-17T00:31:26.325Z,11.39
2019-05-17T00:32:24.334Z,11.44
2019-05-17T00:33:24.315Z,11.47
2019-05-17T00:34:24.316Z,11.32
2019-05-17T00:35:26.633Z,11.44
2019-05-17T00:36:26.761Z,11.46
2019-05-17T00:37:26.312Z,11.43
2019-05-17T00:38:24.226Z,11.44
2019-05-17T00:39:24.207Z,11.46
2019-05-17T00:40:24.207Z,11.43
2019-05-17T00:41:26.719Z,11.29
2019-05-17T00:42:26.282Z,11.44
2019-05-17T00:43:26.122Z,11.42
2019-05-17T00:44:24.112Z,11.44
2019-05-17T00:45:24.100Z,11.46
2019-05-17T00:46:26.491Z,11.42
2019-05-17T00:47:26.419Z,11.36
2019-05-17T00:48:26.339Z,11.36
2019-05-17T00:49:26.322Z,11.46
2019-05-17T00:50:24.009Z,11.42
2019-05-17T00:51:23.989Z,11.39
2019-05-17T00:52:23.995Z,11.33
2019-05-17T00:53:23.955Z,11.28
2019-05-17T00:54:23.931Z,11.35
2019-05-17T00:55:23.915Z,11.39
2019-05-17T00:56:23.897Z,11.35
2019-05-17T00:57:23.895Z,11.37
2019-05-17T00:58:26.192Z,11.39
2019-05-17T00:59:26.197Z,11.40
2019-05-17T01:00:23.839Z,11.46
2019-05-17T01:01:23.808Z,11.44
2019-05-17T01:02:23.785Z,11.42
2019-05-17T01:03:23.789Z,11.42
2019-05-17T01:04:23.756Z,11.35
2019-05-17T01:05:23.729Z,11.36
2019-05-17T01:06:23.713Z,11.33
2019-05-17T01:07:23.697Z,11.33
2019-05-17T01:08:23.686Z,11.36
2019-05-17T01:09:23.685Z,11.37
2019-05-17T01:10:23.641Z,11.25
2019-05-17T01:11:23.628Z,11.32
2019-05-17T01:12:23.608Z,11.33
2019-05-17T01:13:23.591Z,11.27
2019-05-17T01:14:23.571Z,11.27
2019-05-17T01:15:23.569Z,11.33
2019-05-17T01:16:23.538Z,11.39
2019-05-17T01:17:23.523Z,11.36
2019-05-17T01:18:23.500Z,11.27
2019-05-17T01:19:23.491Z,11.25
2019-05-17T01:20:23.482Z,11.28
2019-05-17T01:21:23.446Z,11.29
2019-05-17T01:22:23.434Z,11.29
2019-05-17T01:23:23.418Z,11.33
2019-05-17T01:24:23.389Z,11.27
2019-05-17T01:25:23.369Z,11.24
2019-05-17T01:26:23.368Z,11.36
2019-05-17T01:27:23.351Z,11.28
2019-05-17T01:28:23.339Z,11.40
2019-05-17T01:29:23.298Z,11.28
2019-05-17T01:30:23.281Z,11.22
2019-05-17T01:31:23.277Z,11.27
2019-05-17T01:32:23.240Z,11.35
2019-05-17T01:33:23.241Z,11.27
2019-05-17T01:34:23.214Z,11.29
2019-05-17T01:35:23.188Z,11.24
2019-05-17T01:36:23.174Z,11.33
2019-05-17T01:37:23.150Z,11.25
2019-05-17T01:38:23.137Z,11.33
2019-05-17T01:39:23.134Z,11.22
2019-05-17T01:40:23.117Z,11.27
2019-05-17T01:41:23.078Z,11.28
2019-05-17T01:42:23.061Z,11.33
2019-05-17T01:43:23.039Z,11.22
2019-05-17T01:44:23.034Z,11.27
2019-05-17T01:45:23.005Z,11.25
2019-05-17T01:46:23.004Z,11.27
2019-05-17T01:47:22.969Z,11.35
2019-05-17T01:48:22.949Z,11.25
2019-05-17T01:49:22.928Z,11.33
2019-05-17T01:50:22.943Z,11.27
2019-05-17T01:51:22.913Z,11.27
2019-05-17T01:52:22.874Z,11.21
2019-05-17T01:53:22.857Z,11.32
2019-05-17T01:54:22.842Z,11.36
2019-05-17T01:55:22.830Z,11.25
2019-05-17T01:56:22.804Z,11.25
2019-05-17T01:57:22.803Z,11.25
2019-05-17T01:58:22.769Z,11.27
2019-05-17T01:59:22.748Z,11.27
2019-05-17T02:00:22.731Z,11.27
2019-05-17T02:01:23.278Z,11.33
2019-05-17T02:02:22.709Z,11.28
2019-05-17T02:03:22.674Z,11.28
2019-05-17T02:04:22.655Z,11.19
2019-05-17T02:05:22.638Z,11.21
2019-05-17T02:06:22.621Z,11.18
2019-05-17T02:07:22.615Z,11.24
2019-05-17T02:08:22.603Z,11.21
2019-05-17T02:09:34.829Z,11.19
2019-05-17T02:10:22.546Z,11.18
2019-05-17T02:11:22.531Z,11.19
2019-05-17T02:12:22.527Z,11.24
2019-05-17T02:13:22.492Z,11.27
2019-05-17T02:14:22.473Z,11.22
2019-05-17T02:15:22.454Z,11.24
2019-05-17T02:16:22.435Z,11.27
2019-05-17T02:17:22.418Z,11.27
2019-05-17T02:18:22.416Z,11.29
2019-05-17T02:19:22.381Z,11.27
2019-05-17T02:20:22.365Z,11.27
2019-05-17T02:21:22.345Z,11.27
2019-05-17T02:22:22.325Z,11.33
2019-05-17T02:23:22.332Z,11.32
2019-05-17T02:24:22.289Z,11.29
2019-05-17T02:25:22.280Z,11.35
2019-05-17T02:26:22.257Z,11.24
2019-05-17T02:27:25.177Z,11.28
2019-05-17T02:28:22.240Z,11.25
2019-05-17T02:29:22.208Z,11.27
2019-05-17T02:30:23.294Z,11.24
2019-05-17T02:31:24.706Z,11.22
2019-05-17T02:32:23.481Z,11.29
2019-05-17T02:33:23.590Z,11.28
2019-05-17T02:34:23.217Z,11.33
2019-05-17T02:35:23.110Z,11.27
2019-05-17T02:36:22.866Z,11.24
2019-05-17T02:37:23.134Z,11.29
2019-05-17T02:38:22.527Z,11.29
2019-05-17T02:39:23.200Z,11.28
2019-05-17T02:40:22.667Z,11.27
2019-05-17T02:41:22.700Z,11.28
2019-05-17T02:42:22.494Z,11.29
2019-05-17T02:43:23.591Z,11.35
2019-05-17T02:44:23.519Z,11.28
2019-05-17T02:45:23.412Z,11.24
2019-05-17T02:46:23.041Z,11.28
2019-05-17T02:47:23.055Z,11.29
2019-05-17T02:48:23.256Z,11.18
2019-05-17T02:49:23.544Z,11.22
2019-05-17T02:50:23.347Z,11.21
2019-05-17T02:51:23.633Z,11.22
2019-05-17T02:52:22.951Z,11.19
2019-05-17T02:53:22.966Z,11.14
2019-05-17T02:54:23.461Z,11.15
2019-05-17T02:55:23.439Z,11.11
2019-05-17T02:56:23.068Z,11.15
2019-05-17T02:57:23.330Z,11.14
2019-05-17T02:58:23.352Z,11.17
2019-05-17T02:59:23.232Z,11.14
2019-05-17T03:00:23.947Z,11.17
2019-05-17T03:01:23.144Z,11.09
2019-05-17T03:02:27.519Z,11.11
2019-05-17T03:03:23.641Z,11.09
2019-05-17T03:04:23.686Z,11.09
2019-05-17T03:05:23.250Z,11.15
2019-05-17T03:06:22.790Z,11.14
2019-05-17T03:07:23.148Z,11.06
2019-05-17T03:08:23.409Z,11.11
2019-05-17T03:09:22.905Z,11.11
2019-05-17T03:10:27.476Z,11.11
2019-05-17T03:11:22.697Z,11.07
2019-05-17T03:12:23.629Z,11.10
2019-05-17T03:13:23.378Z,11.09
2019-05-17T03:14:22.956Z,11.10
2019-05-17T03:15:23.324Z,11.17
2019-05-17T03:16:23.676Z,11.10
2019-05-17T03:17:22.977Z,11.17
2019-05-17T03:18:22.902Z,11.11
2019-05-17T03:19:23.558Z,11.10
2019-05-17T03:20:23.213Z,11.10
2019-05-17T03:21:22.904Z,11.10
2019-05-17T03:22:23.131Z,11.10
2019-05-17T03:23:23.483Z,11.09
2019-05-17T03:24:22.636Z,11.11
2019-05-17T03:25:23.927Z,11.15
2019-05-17T03:26:23.152Z,11.10
2019-05-17T03:27:23.264Z,11.15
2019-05-17T03:28:23.516Z,11.11
2019-05-17T03:29:22.662Z,11.09
2019-05-17T03:30:25.814Z,11.11
2019-05-17T03:31:26.059Z,11.17
2019-05-17T03:32:25.923Z,11.19
2019-05-17T03:33:25.845Z,11.11
2019-05-17T03:34:25.722Z,11.17
2019-05-17T03:35:25.739Z,11.07
2019-05-17T03:36:26.070Z,11.10
2019-05-17T03:37:25.902Z,11.15
2019-05-17T03:38:22.826Z,11.17
2019-05-17T03:39:22.677Z,11.22
2019-05-17T03:40:36.399Z,11.24
2019-05-17T03:41:28.514Z,11.14
2019-05-17T03:42:22.663Z,11.17
2019-05-17T03:43:22.642Z,11.17
2019-05-17T03:44:22.608Z,11.17
2019-05-17T03:45:22.817Z,11.14
2019-05-17T03:46:23.186Z,11.17
2019-05-17T03:47:22.718Z,11.09
2019-05-17T03:48:22.162Z,11.10
2019-05-17T03:49:22.294Z,11.09
2019-05-17T03:50:22.717Z,11.17
2019-05-17T03:51:23.273Z,11.10
2019-05-17T03:52:22.421Z,11.17
2019-05-17T03:53:22.837Z,11.10
2019-05-17T03:54:22.636Z,11.07
2019-05-17T03:55:23.253Z,11.06
2019-05-17T03:56:22.418Z,11.11
2019-05-17T03:57:23.616Z,11.09
2019-05-17T03:58:23.296Z,10.99
2019-05-17T03:59:20.562Z,11.04
2019-05-17T04:00:23.218Z,11.00
2019-05-17T04:01:22.962Z,11.02
2019-05-17T04:02:23.015Z,11.10
2019-05-17T04:03:22.884Z,11.09
2019-05-17T04:04:22.936Z,11.09
2019-05-17T04:05:22.728Z,11.07
2019-05-17T04:06:23.582Z,11.14
2019-05-17T04:07:23.378Z,11.11
2019-05-17T04:08:22.997Z,11.17
2019-05-17T04:09:22.439Z,11.10
2019-05-17T04:10:22.790Z,11.10
2019-05-17T04:11:31.025Z,11.11
2019-05-17T04:12:23.115Z,11.09
2019-05-17T04:13:23.138Z,11.09
2019-05-17T04:14:22.498Z,11.17
2019-05-17T04:15:23.638Z,11.18
2019-05-17T04:16:23.613Z,11.17
2019-05-17T04:17:22.742Z,11.19
2019-05-17T04:18:23.208Z,11.17
2019-05-17T04:19:23.002Z,11.14
2019-05-17T04:20:22.391Z,11.15
2019-05-17T04:21:23.171Z,11.11
2019-05-17T04:22:20.129Z,11.19
2019-05-17T04:23:25.270Z,11.11
2019-05-17T04:24:22.891Z,11.14
2019-05-17T04:25:23.209Z,11.22
2019-05-17T04:26:22.772Z,11.15
2019-05-17T04:27:22.804Z,11.21
2019-05-17T04:28:22.952Z,11.24
2019-05-17T04:29:22.699Z,11.25
2019-05-17T04:30:23.149Z,11.32
2019-05-17T04:31:22.552Z,11.25
2019-05-17T04:32:23.115Z,11.27
2019-05-17T04:33:22.895Z,11.22
2019-05-17T04:34:22.441Z,11.21
2019-05-17T04:35:22.978Z,11.17
2019-05-17T04:36:22.489Z,11.22
2019-05-17T04:37:22.610Z,11.21
2019-05-17T04:38:19.814Z,11.18
2019-05-17T04:39:22.420Z,11.24
2019-05-17T04:40:22.872Z,11.21
2019-05-17T04:41:35.979Z,11.29
2019-05-17T04:42:22.441Z,11.27
2019-05-17T04:43:22.879Z,11.28
2019-05-17T04:44:22.970Z,11.24
2019-05-17T04:45:22.754Z,11.18
2019-05-17T04:46:23.349Z,11.32
2019-05-17T04:47:22.680Z,11.33
2019-05-17T04:48:23.004Z,11.29
2019-05-17T04:49:19.622Z,11.33
2019-05-17T04:50:22.804Z,11.32
2019-05-17T04:51:19.597Z,11.25
2019-05-17T04:52:22.536Z,11.37
2019-05-17T04:53:19.532Z,11.37
2019-05-17T04:54:22.495Z,11.35
2019-05-17T04:55:22.813Z,11.36
2019-05-17T04:56:22.453Z,11.35
2019-05-17T04:57:19.473Z,11.36
2019-05-17T04:58:23.025Z,11.35
2019-05-17T04:59:24.043Z,11.35
2019-05-17T05:00:21.931Z,11.44
2019-05-17T05:01:19.403Z,11.42
2019-05-17T05:02:19.383Z,11.33
2019-05-17T05:03:19.372Z,11.49
2019-05-17T05:04:22.424Z,11.43
2019-05-17T05:05:22.458Z,11.35
2019-05-17T05:06:19.287Z,11.40
2019-05-17T05:07:19.307Z,11.42
2019-05-17T05:08:22.241Z,11.54
2019-05-17T05:09:19.237Z,11.39
2019-05-17T05:10:22.311Z,11.44
2019-05-17T05:11:19.199Z,11.51
2019-05-17T05:12:19.180Z,11.58
2019-05-17T05:13:19.167Z,11.57
2019-05-17T05:14:19.158Z,11.49
2019-05-17T05:15:19.129Z,11.61
2019-05-17T05:16:19.115Z,11.64
2019-05-17T05:17:19.087Z,11.64
2019-05-17T05:18:21.888Z,11.61
2019-05-17T05:19:19.066Z,11.54
2019-05-17T05:20:21.985Z,11.58
2019-05-17T05:21:19.022Z,11.69
2019-05-17T05:22:18.997Z,11.69
2019-05-17T05:23:18.973Z,11.61
2019-05-17T05:24:18.956Z,11.64
2019-05-17T05:25:18.955Z,11.65
2019-05-17T05:26:18.917Z,11.67
2019-05-17T05:27:18.898Z,11.69
2019-05-17T05:28:18.892Z,11.70
2019-05-17T05:29:18.865Z,11.70
2019-05-17T05:30:18.876Z,11.67
2019-05-17T05:31:18.824Z,11.82
2019-05-17T05:32:18.811Z,11.73
2019-05-17T05:33:18.794Z,11.69
2019-05-17T05:34:21.784Z,11.76
2019-05-17T05:35:18.764Z,11.76
2019-05-17T05:36:18.752Z,11.78
2019-05-17T05:37:20.905Z,11.70
2019-05-17T05:38:18.698Z,11.69
2019-05-17T05:39:19.286Z,11.83
2019-05-17T05:40:18.661Z,11.79
2019-05-17T05:41:18.662Z,11.79
2019-05-17T05:42:18.629Z,11.75
2019-05-17T05:43:18.625Z,11.75
2019-05-17T05:44:18.590Z,11.86
2019-05-17T05:45:18.570Z,11.88
2019-05-17T05:46:18.550Z,11.86
2019-05-17T05:47:18.558Z,11.90
2019-05-17T05:48:18.515Z,11.88
2019-05-17T05:49:18.513Z,11.88
2019-05-17T05:50:18.492Z,11.90
2019-05-17T05:51:18.475Z,11.95
2019-05-17T05:52:18.440Z,11.86
2019-05-17T05:53:18.429Z,11.95
2019-05-17T05:54:18.414Z,11.83
2019-05-17T05:55:18.407Z,11.90
2019-05-17T05:56:18.372Z,11.95
2019-05-17T05:57:18.348Z,11.90
2019-05-17T05:58:18.335Z,11.90
2019-05-17T05:59:18.409Z,12.05
2019-05-17T06:02:01.766Z,12.04
2019-05-17T06:03:04.023Z,12.02
2019-05-17T06:04:02.701Z,11.94
2019-05-17T06:05:02.004Z,12.01
2019-05-17T06:06:01.804Z,11.96
2019-05-17T06:07:02.849Z,11.94
2019-05-17T06:08:02.728Z,11.99
2019-05-17T06:09:02.721Z,11.99
2019-05-17T06:10:02.257Z,11.99
2019-05-17T06:11:02.149Z,12.01
2019-05-17T06:12:02.442Z,12.14
2019-05-17T06:13:03.109Z,12.16
2019-05-17T06:14:01.646Z,12.04
2019-05-17T06:15:02.659Z,12.07
2019-05-17T06:16:02.678Z,12.17
2019-05-17T06:17:03.040Z,12.09
2019-05-17T06:18:02.716Z,12.07
2019-05-17T06:19:02.344Z,12.19
2019-05-17T06:20:02.548Z,12.12
2019-05-17T06:21:02.699Z,12.17
2019-05-17T06:22:02.512Z,12.07
2019-05-17T06:23:02.416Z,12.04
2019-05-17T06:24:02.436Z,12.10
2019-05-17T06:25:03.470Z,12.05
2019-05-17T06:26:04.205Z,12.07
2019-05-17T06:27:01.888Z,12.17
2019-05-17T06:28:01.550Z,12.19
2019-05-17T06:29:02.594Z,12.16
2019-05-17T06:30:01.501Z,12.16
2019-05-17T06:31:02.657Z,12.17
2019-05-17T06:32:02.454Z,12.14
2019-05-17T06:33:02.357Z,12.13
2019-05-17T06:34:01.916Z,12.16
2019-05-17T06:35:01.878Z,12.19
2019-05-17T06:36:02.615Z,12.23
2019-05-17T06:37:02.202Z,12.17
2019-05-17T06:38:01.920Z,12.27
2019-05-17T06:39:02.117Z,12.35
2019-05-17T06:40:02.391Z,12.35
2019-05-17T06:41:01.596Z,12.42
2019-05-17T06:42:02.580Z,12.46
2019-05-17T06:43:03.964Z,12.47
2019-05-17T06:43:59.997Z,12.46
2019-05-17T06:45:02.150Z,12.41
2019-05-17T06:46:01.746Z,12.49
2019-05-17T06:47:02.430Z,12.38
2019-05-17T06:48:02.356Z,12.42
2019-05-17T06:49:02.834Z,12.54
2019-05-17T06:50:02.833Z,12.56
2019-05-17T06:51:02.285Z,12.59
2019-05-17T06:52:02.219Z,12.57
2019-05-17T06:52:59.833Z,12.56
2019-05-17T06:54:01.755Z,12.46
2019-05-17T06:55:02.895Z,12.42
2019-05-17T06:55:59.776Z,12.46
2019-05-17T06:56:59.757Z,12.47
2019-05-17T06:58:01.712Z,12.52
2019-05-17T06:58:59.723Z,12.49
2019-05-17T07:00:02.476Z,12.53
2019-05-17T07:01:00.032Z,12.38
2019-05-17T07:01:59.827Z,12.41
2019-05-17T07:03:00.729Z,12.45
2019-05-17T07:04:00.292Z,12.38
2019-05-17T07:05:01.469Z,12.42
2019-05-17T07:05:59.707Z,12.38
2019-05-17T07:07:00.128Z,12.45
2019-05-17T07:08:00.237Z,12.37
2019-05-17T07:09:00.984Z,12.32
2019-05-17T07:10:00.549Z,12.34
2019-05-17T07:10:59.860Z,12.31
2019-05-17T07:11:59.687Z,12.32
2019-05-17T07:13:01.920Z,12.27
2019-05-17T07:13:59.822Z,12.31
2019-05-17T07:15:01.692Z,12.27
2019-05-17T07:15:59.880Z,12.23
2019-05-17T07:16:59.628Z,12.34
2019-05-17T07:17:59.918Z,12.29
2019-05-17T07:18:59.830Z,12.34
2019-05-17T07:19:59.836Z,12.38
2019-05-17T07:21:02.881Z,12.39
2019-05-17T07:22:00.031Z,12.39
2019-05-17T07:23:00.406Z,12.57
2019-05-17T07:23:59.473Z,12.56
2019-05-17T07:24:59.744Z,12.56
2019-05-17T07:25:59.673Z,12.56
2019-05-17T07:26:59.262Z,12.56
2019-05-17T07:28:00.491Z,12.57
2019-05-17T07:28:59.379Z,12.56
2019-05-17T07:29:59.342Z,12.59
2019-05-17T07:30:59.708Z,12.56
2019-05-17T07:32:00.318Z,12.57
2019-05-17T07:33:00.331Z,12.54
2019-05-17T07:33:59.886Z,12.67
2019-05-17T07:34:59.988Z,12.64
2019-05-17T07:35:59.506Z,12.70
2019-05-17T07:36:59.763Z,12.71
2019-05-17T07:37:59.588Z,12.67
2019-05-17T07:39:00.767Z,12.77
2019-05-17T07:40:04.829Z,12.75
2019-05-17T07:40:59.551Z,12.78
2019-05-17T07:41:59.997Z,12.68
2019-05-17T07:43:07.863Z,12.68
2019-05-17T07:44:00.381Z,12.68
2019-05-17T07:45:00.498Z,12.72
2019-05-17T07:46:00.469Z,12.67
2019-05-17T07:47:00.154Z,12.65
2019-05-17T07:48:00.146Z,12.65
2019-05-17T07:49:00.428Z,12.72
2019-05-17T07:50:01.101Z,12.65
2019-05-17T07:50:59.350Z,12.64
2019-05-17T07:52:00.723Z,12.64
2019-05-17T07:53:00.626Z,12.67
2019-05-17T07:53:59.759Z,12.68
2019-05-17T07:55:02.349Z,12.60
2019-05-17T07:55:59.591Z,12.67
2019-05-17T07:57:00.236Z,12.67
2019-05-17T07:58:00.244Z,12.62
2019-05-17T07:59:00.029Z,12.60
2019-05-17T07:59:59.936Z,12.68
2019-05-17T08:00:58.599Z,12.60
2019-05-17T08:01:59.701Z,12.65
2019-05-17T08:02:59.932Z,12.71
2019-05-17T08:04:00.656Z,12.64
2019-05-17T08:05:00.494Z,12.64
2019-05-17T08:06:00.053Z,12.62
2019-05-17T08:06:59.821Z,12.65
2019-05-17T08:08:00.124Z,12.64
2019-05-17T08:09:03.357Z,12.67
2019-05-17T08:10:00.198Z,12.67
2019-05-17T08:11:00.407Z,12.62
2019-05-17T08:11:59.763Z,12.65
2019-05-17T08:12:59.939Z,12.72
2019-05-17T08:13:59.757Z,12.68
2019-05-17T08:14:59.819Z,12.72
2019-05-17T08:15:59.508Z,12.83
2019-05-17T08:16:59.848Z,12.78
2019-05-17T08:17:59.384Z,12.77
2019-05-17T08:19:00.249Z,12.68
2019-05-17T08:20:00.308Z,12.75
2019-05-17T08:20:59.674Z,12.75
2019-05-17T08:21:59.713Z,12.75
2019-05-17T08:22:59.517Z,12.83
2019-05-17T08:24:00.101Z,12.85
2019-05-17T08:25:00.061Z,12.92
2019-05-17T08:26:00.392Z,12.87
2019-05-17T08:26:59.930Z,12.85
2019-05-17T08:27:59.493Z,12.85
2019-05-17T08:29:00.397Z,12.90
2019-05-17T08:29:59.696Z,12.96
2019-05-17T08:31:00.765Z,13.00
2019-05-17T08:32:00.236Z,13.08
2019-05-17T08:33:00.750Z,13.05
2019-05-17T08:33:59.901Z,13.03
2019-05-17T08:35:00.392Z,13.10
2019-05-17T08:35:59.732Z,13.08
2019-05-17T08:36:57.952Z,13.00
2019-05-17T08:38:00.372Z,12.87
2019-05-17T08:38:59.721Z,12.77
2019-05-17T08:40:00.081Z,12.82
2019-05-17T08:41:00.386Z,12.86
2019-05-17T08:42:00.917Z,12.93
2019-05-17T08:43:00.019Z,12.97
2019-05-17T08:44:00.483Z,13.01
2019-05-17T08:45:00.043Z,13.00
2019-05-17T08:45:59.305Z,13.08
2019-05-17T08:46:59.518Z,13.10
2019-05-17T08:48:00.182Z,13.10
2019-05-17T08:49:00.106Z,13.07
2019-05-17T08:50:00.202Z,13.11
2019-05-17T08:50:59.967Z,13.28
2019-05-17T08:51:59.460Z,13.20
2019-05-17T08:52:59.828Z,13.20
2019-05-17T08:53:59.835Z,13.26
2019-05-17T08:55:00.160Z,13.26
2019-05-17T08:55:57.622Z,13.28
2019-05-17T08:56:57.609Z,13.22
2019-05-17T08:58:00.848Z,13.17
2019-05-17T08:58:57.564Z,13.29
2019-05-17T08:59:57.549Z,13.17
2019-05-17T09:01:00.026Z,13.08
2019-05-17T09:01:59.960Z,13.10
2019-05-17T09:02:59.932Z,13.11
2019-05-17T09:03:59.673Z,13.11
2019-05-17T09:04:57.462Z,13.00
2019-05-17T09:06:01.496Z,13.08
2019-05-17T09:06:59.712Z,13.04
2019-05-17T09:07:57.406Z,13.11
2019-05-17T09:08:57.385Z,13.03
2019-05-17T09:09:57.389Z,12.96
2019-05-17T09:11:00.077Z,13.05
2019-05-17T09:11:59.521Z,13.08
2019-05-17T09:12:59.539Z,13.14
2019-05-17T09:14:01.073Z,13.08
2019-05-17T09:14:57.302Z,13.12
2019-05-17T09:15:57.265Z,13.10
2019-05-17T09:17:00.218Z,13.11
2019-05-17T09:17:57.231Z,13.11
2019-05-17T09:18:57.209Z,13.10
2019-05-17T09:19:57.192Z,13.12
2019-05-17T09:20:57.194Z,13.11
2019-05-17T09:21:59.681Z,13.15
2019-05-17T09:22:57.146Z,13.25
2019-05-17T09:23:59.563Z,13.14
2019-05-17T09:24:59.450Z,13.22
2019-05-17T09:25:59.367Z,13.19
2019-05-17T09:26:57.088Z,13.26
2019-05-17T09:27:57.065Z,13.22
2019-05-17T09:28:57.032Z,13.12
2019-05-17T09:29:57.196Z,13.08
2019-05-17T09:30:57.012Z,13.19
2019-05-17T09:31:56.992Z,13.14
2019-05-17T09:32:56.971Z,13.14
2019-05-17T09:33:56.963Z,13.19
2019-05-17T09:34:56.938Z,13.17
2019-05-17T09:35:56.932Z,13.23
2019-05-17T09:36:56.893Z,13.17
2019-05-17T09:37:56.878Z,13.29
2019-05-17T09:38:56.878Z,13.12
2019-05-17T09:39:56.849Z,13.11
2019-05-17T09:40:56.843Z,13.12
2019-05-17T09:41:56.815Z,13.12
2019-05-17T09:42:56.793Z,13.12
2019-05-17T09:44:09.629Z,13.11
2019-05-17T09:44:56.753Z,13.14
2019-05-17T09:45:56.743Z,13.11
2019-05-17T09:46:56.735Z,13.11
2019-05-17T09:47:56.705Z,13.10
2019-05-17T09:48:56.685Z,13.05
2019-05-17T09:49:56.666Z,13.10
2019-05-17T09:50:56.659Z,13.08
2019-05-17T09:51:56.655Z,13.01
2019-05-17T09:52:56.622Z,13.11
2019-05-17T09:53:56.596Z,13.08
2019-05-17T09:54:56.577Z,13.00
2019-05-17T09:55:56.560Z,13.05
2019-05-17T09:56:56.542Z,12.95
2019-05-17T09:57:56.540Z,12.96
2019-05-17T09:58:56.532Z,13.08
2019-05-17T09:59:56.493Z,13.00
2019-05-17T10:00:56.468Z,13.08
2019-05-17T10:01:56.454Z,13.08
2019-05-17T10:02:56.456Z,13.11
2019-05-17T10:04:04.863Z,13.10
2019-05-17T10:04:59.797Z,13.11
2019-05-17T10:05:56.379Z,13.11
2019-05-17T10:06:56.383Z,13.19
2019-05-17T10:07:56.372Z,13.17
2019-05-17T10:08:56.331Z,13.14
2019-05-17T10:09:56.311Z,13.10
2019-05-17T10:11:05.910Z,13.22
2019-05-17T10:11:56.274Z,13.22
2019-05-17T10:12:56.277Z,13.10
2019-05-17T10:13:58.944Z,13.10
2019-05-17T10:14:56.225Z,13.08
2019-05-17T10:15:56.260Z,13.12
2019-05-17T10:16:56.185Z,12.96
2019-05-17T10:17:56.182Z,13.04
2019-05-17T10:18:56.153Z,13.05
2019-05-17T10:19:56.139Z,13.07
2019-05-17T10:20:56.116Z,13.05
2019-05-17T10:21:56.115Z,13.12
2019-05-17T10:22:56.078Z,13.07
2019-05-17T10:23:56.065Z,13.15
2019-05-17T10:24:56.042Z,13.07
2019-05-17T10:25:56.024Z,13.15
2019-05-17T10:26:56.013Z,13.17
2019-05-17T10:27:56.012Z,13.08
2019-05-17T10:28:55.971Z,13.08
2019-05-17T10:29:55.975Z,13.12
2019-05-17T10:30:55.938Z,13.12
2019-05-17T10:31:55.917Z,13.10
2019-05-17T10:32:55.904Z,13.11
2019-05-17T10:33:58.196Z,13.10
2019-05-17T10:34:55.875Z,13.10
2019-05-17T10:36:00.409Z,13.11
2019-05-17T10:36:58.354Z,13.05
2019-05-17T10:37:55.808Z,13.17
2019-05-17T10:38:55.815Z,13.15
2019-05-17T10:39:55.775Z,13.26
2019-05-17T10:40:55.783Z,13.10
2019-05-17T10:41:55.745Z,13.11
2019-05-17T10:42:55.725Z,13.14
2019-05-17T10:43:55.709Z,13.11
2019-05-17T10:44:55.716Z,13.10
2019-05-17T10:45:55.693Z,13.11
2019-05-17T10:46:55.654Z,13.12
2019-05-17T10:47:55.634Z,13.14
2019-05-17T10:48:55.611Z,13.17
2019-05-17T10:49:55.601Z,13.19
2019-05-17T10:50:55.594Z,13.22
2019-05-17T10:51:55.585Z,13.19
2019-05-17T10:52:55.551Z,13.08
2019-05-17T10:53:55.533Z,13.08
2019-05-17T10:54:55.524Z,13.23
2019-05-17T10:55:55.505Z,13.28
2019-05-17T10:56:55.491Z,13.20
2019-05-17T10:57:55.475Z,13.01
2019-05-17T10:58:55.441Z,13.12
2019-05-17T10:59:55.422Z,13.10
2019-05-17T11:00:55.403Z,13.05
2019-05-17T11:01:55.391Z,13.14
2019-05-17T11:02:55.375Z,13.23
2019-05-17T11:03:55.372Z,13.17
2019-05-17T11:04:55.332Z,13.26
2019-05-17T11:05:55.324Z,13.10
2019-05-17T11:06:55.301Z,13.11
2019-05-17T11:07:55.288Z,13.15
2019-05-17T11:08:55.267Z,13.12
2019-05-17T11:09:55.269Z,13.23
2019-05-17T11:10:55.264Z,13.25
2019-05-17T11:11:55.210Z,13.22
2019-05-17T11:12:55.197Z,13.19
2019-05-17T11:13:55.175Z,13.14
2019-05-17T11:15:09.728Z,13.19
2019-05-17T11:15:55.171Z,13.20
2019-05-17T11:16:55.119Z,13.25
2019-05-17T11:17:55.112Z,13.30
2019-05-17T11:18:55.087Z,13.30
2019-05-17T11:19:55.082Z,13.39
2019-05-17T11:20:55.056Z,13.38
2019-05-17T11:21:55.048Z,13.38
2019-05-17T11:22:55.037Z,13.42
2019-05-17T11:23:55.006Z,13.41
2019-05-17T11:24:54.979Z,13.46
2019-05-17T11:25:54.976Z,13.49
2019-05-17T11:26:54.946Z,13.45
2019-05-17T11:27:54.945Z,13.48
2019-05-17T11:28:54.908Z,13.51
2019-05-17T11:29:54.888Z,13.54
2019-05-17T11:30:54.878Z,13.49
2019-05-17T11:31:54.862Z,13.51
2019-05-17T11:32:54.838Z,13.51
2019-05-17T11:33:54.839Z,13.63
2019-05-17T11:34:54.800Z,13.59
2019-05-17T11:35:54.787Z,13.60
2019-05-17T11:36:54.790Z,13.59
2019-05-17T11:37:54.748Z,13.64
2019-05-17T11:38:54.737Z,13.66
2019-05-17T11:39:54.717Z,13.64
2019-05-17T11:40:54.702Z,13.63
2019-05-17T11:41:54.677Z,13.60
2019-05-17T11:42:54.707Z,13.57
2019-05-17T11:43:54.670Z,13.57
2019-05-17T11:44:54.646Z,13.42
2019-05-17T11:45:54.612Z,13.51
2019-05-17T11:46:54.589Z,13.46
2019-05-17T11:47:54.582Z,13.36
2019-05-17T11:48:54.589Z,13.30
2019-05-17T11:49:54.534Z,13.29
2019-05-17T11:50:55.208Z,13.26
2019-05-17T11:51:54.519Z,13.29
2019-05-17T11:52:54.492Z,13.28
2019-05-17T11:53:54.474Z,13.30
2019-05-17T11:54:54.458Z,13.33
2019-05-17T11:55:54.442Z,13.15
2019-05-17T11:56:54.436Z,13.07
2019-05-17T11:57:54.417Z,13.08
2019-05-17T11:58:54.387Z,13.12
2019-05-17T11:59:54.361Z,13.10
2019-05-17T12:00:54.348Z,13.05
2019-05-17T12:01:54.398Z,13.14
2019-05-17T12:02:54.913Z,13.11
2019-05-17T12:03:54.291Z,13.17
2019-05-17T12:04:54.279Z,13.20
2019-05-17T12:05:54.262Z,13.07
2019-05-17T12:06:54.247Z,13.19
2019-05-17T12:07:54.242Z,13.22
2019-05-17T12:08:54.227Z,13.20
2019-05-17T12:09:54.183Z,13.17
2019-05-17T12:10:54.289Z,13.28
2019-05-17T12:11:54.150Z,13.33
2019-05-17T12:12:54.131Z,13.28
2019-05-17T12:13:54.117Z,13.33
2019-05-17T12:14:54.117Z,13.36
2019-05-17T12:15:54.095Z,13.30
2019-05-17T12:16:54.072Z,13.32
2019-05-17T12:17:54.058Z,13.38
2019-05-17T12:18:54.036Z,13.41
2019-05-17T12:19:54.009Z,13.48
2019-05-17T12:20:54.025Z,13.45
2019-05-17T12:21:53.982Z,13.41
2019-05-17T12:22:53.955Z,13.52
2019-05-17T12:23:53.942Z,13.49
2019-05-17T12:24:53.931Z,13.44
2019-05-17T12:25:53.905Z,13.60
2019-05-17T12:26:53.901Z,13.52
2019-05-17T12:27:53.873Z,13.52
2019-05-17T12:28:54.882Z,13.48
2019-05-17T12:29:53.830Z,13.45
2019-05-17T12:30:53.815Z,13.48
2019-05-17T12:31:53.798Z,13.51
2019-05-17T12:32:53.804Z,13.45
2019-05-17T12:33:53.799Z,13.45
2019-05-17T12:34:53.749Z,13.44
2019-05-17T12:35:53.736Z,13.49
2019-05-17T12:36:53.712Z,13.46
2019-05-17T12:37:53.696Z,13.46
2019-05-17T12:38:53.695Z,13.42
2019-05-17T12:39:53.661Z,13.42
2019-05-17T12:40:54.424Z,13.45
2019-05-17T12:41:53.723Z,13.42
2019-05-17T12:42:53.606Z,13.36
2019-05-17T12:43:53.593Z,13.36
2019-05-17T12:44:53.601Z,13.30
2019-05-17T12:46:00.645Z,13.38
2019-05-17T12:46:53.570Z,13.36
2019-05-17T12:47:53.529Z,13.38
2019-05-17T12:48:53.504Z,13.41
2019-05-17T12:49:53.500Z,13.33
2019-05-17T12:50:53.466Z,13.32
2019-05-17T12:51:53.461Z,13.36
2019-05-17T12:52:53.449Z,13.41
2019-05-17T12:53:53.415Z,13.36